Terminal Aerodrome Forecast
Issued by NWS

Home | Current Version | Previous Version | Text Only | Print | Product List | Glossary On
Versions: 1 2 3 4 5 6 7 8 9 10 11 12 13 14 15 16 17 18 19 20 21 22 23 24 25 26 27 28 29 30 31 32 33 34 35 36
000
FTUS43 KLOT 262330
TAFMDW
TAF
KMDW 262330Z 2700/2724 32012KT P6SM BKN045
     FM270200 34010KT P6SM BKN035
     FM270500 01012KT P6SM OVC035
     FM270700 01012KT 3SM -SHSN BKN020 OVC040
     FM271200 01012KT P6SM -SHSN BKN025 OVC040
     FM271500 36014G20KT P6SM BKN040
     FM272100 04012KT P6SM SCT040=

USA.gov is the U.S. government's official web portal to all federal, state and local government web resources and services.